Aeroporto :







RITROVATECI SU...

 
LOGIN :

Iscrizione | Disclaimer

   EN    FR    IT 

 









Sommario :    VFR   VFR Marginale   IFR   IFR Intensivo   IFR Molto Intensivo
Visibilità : 
Base nubi : 
>= 8 km
>= 3000ft
5 / 8 km
1000 / 3000 ft
1500m / 5 km
500 / 1000 ft
800 / 1500m
200 / 500 ft
< 800m
< 200 ft
Simboli :   Temporali  Nebbia  Neve Forte  Precipitazioni Forti  Vento > 20 kt






- Altitudine del aeroporto : 21 ft
- Codice IATA : YVM


CYVM - Qikiqtarjuac

ULTIMO METAR :
  • 142100Z 36021G27KT 3SM -SHSN BLSN SCT021 SCT025 BKN039 BKN040 M04/M05 A2900 RMK SN3SC1SC1SC3SC1 SC TR VIS S-W HIER SLP821

METARs OBSOLETI :
  • 142000Z 35019G27KT 4SM -SHSN BLSN FEW026 OVC039 M04/M06 A2900 RMK SC2SC6 VIS S-W 10 SLP823
  • 141923Z 36022G31KT 4SM -SHSN BLSN SCT023 BKN030 OVC041 M04/M05 A2900 RMK SC4SC3SC1 VIS HIER S-SW SLP822

TAF AMD TAF CYVM
Valido dal 14 a 19 ore il 15 a 07 ore UTC


141947Z 1419/1507 36020G30KT 1SM -SN BLSN SCT012 OVC015
TEMPO 1419/1423 3SM -SN SCT020 BKN030
FM142300 35015G25KT P6SM BKN030
TEMPO 1423/1505 5SM -SN BKN020
BECMG 1503/1505 22008KT
FM150500 22008KT P6SM SCT040
TEMPO 1505/1507 BKN030 RMK NXT FCST BY 150100Z



MetMap, La meteo Aeronautica in un colpo d'occhio ! - Copyright ORBIFLY Dicembre 2007 - Disclaimer

ORBIFLY MET'MAP TEAM :

Programmazione e sviluppo : Alexandra Zaïnal
Concezione e sviluppo : Baudouin d'Aumeries
Co-Programmazione e sviluppo : Marc-Olivier Méhu
Supporto tecnico e logistico : Manuel Goepfert
Aiuto per la traduzione : Arnaldo La Scala

Contatto : metmap@orbifly.com




FONTI E CREDITI :

   NOAA